Automated Weather Station

Magsaysay, Infanta, Quezon


Readings

as of November 11, 2016 04:01 PM
Wind Speed
3.4 mm
Rainfall Amount
0.14 mm
Rainfall Intensity
11.3 mm
Air Temperature
mm
Wind Direction
96 mm
Air Humidity
97.7 mm

Data Source: PREDICT (Advanced Science and Technology Institute)

12 HOUR DATA

PREVIOUS DATA

From
To
DateTime Wind Speed Rain Amount Rain Intensity Air Temperature Air Pressure Wind Direction Air Humidity
October 29, 2016 07:01 PM 7.4 0 mm 0 22.3 928.17 22 98.2
October 29, 2016 06:01 PM 7.9 0 mm 0 22.1 927.63 39 97.3
October 29, 2016 05:01 PM 13.2 0 mm 0 22.4 926.97 43 96.1
October 29, 2016 04:01 PM 15.8 0 mm 0 22.8 926.7 26 93.6
October 29, 2016 03:01 PM 5.8 0 mm 0 23.3 926.43 22 91.1
October 29, 2016 01:01 PM 15.4 0 mm 0 24.8 927.5 35 85.5
October 29, 2016 12:02 PM 5.7 0 mm 0 25.7 927.77 341 82.8
October 29, 2016 11:02 AM 10.4 0 mm 0 24.9 928.97 21 82.9
October 29, 2016 10:01 AM 13.8 0 mm 0 24.5 928.83 59 88.2
October 29, 2016 09:01 AM 12.2 0.01 mm 0.3 23.2 929.63 56 93.8
October 29, 2016 08:02 AM 10.8 0 mm 0 22.7 929.23 62 97.3
October 29, 2016 07:01 AM 11.3 0 mm 0 22.1 928.57 58 99.5
October 29, 2016 06:01 AM 15.5 0 mm 0 22.1 927.9 50 99.5
October 29, 2016 05:01 AM 9.1 0 mm 0 21.6 927.24 28 99.4
October 29, 2016 04:01 AM 12.9 0.02 mm 1.1 21.4 926.57 34 99.4
October 29, 2016 03:02 AM 8 0 mm 0 21.7 926.43 52 99.4
October 29, 2016 02:02 AM 11.4 0 mm 0 22 926.84 41 99.4
October 29, 2016 01:01 AM 8 0 mm 0 22.4 926.84 63 99.5
October 29, 2016 12:01 AM 13.9 0 mm 0 22.4 927.63 75 99.5
October 28, 2016 01:01 PM 4.7 0 mm 0 23.2 926.97 114 98.5
October 28, 2016 10:02 AM 7.3 0 mm 0 23 929.63 9 97.7
October 28, 2016 09:01 AM 9.1 0 mm 0 24.1 930.03 80 90
October 28, 2016 08:01 AM 6.7 0 mm 0 23 929.63 0 97.3
October 28, 2016 07:01 AM 5.5 0 mm 0 22.4 929.23 29 98.5
October 28, 2016 06:01 AM 9.1 0 mm 0 22 928.83 51 99
October 28, 2016 05:01 AM 17.1 0 mm 0 21.9 927.77 34 99.3
October 28, 2016 04:01 AM 20.9 0 mm 0 21.7 927.37 43 99.2
October 28, 2016 03:01 AM 17.6 0 mm 0 21.8 927.24 76 99.3
October 28, 2016 02:01 AM 7.3 0 mm 0 21.8 927.5 62 99.1
October 28, 2016 01:02 AM 14.2 0 mm 1 22.2 928.03 59 98.9